Aigen Im Ennstal, Austria

10:21 AM CET on October 31, 2014 (GMT +0100)
Stein an der Enns | Change Station
CLOSE
Current Station
Personal Weather Station
Location: Stein an der Enns, STEIERMARK
Elevation: 2192 ft
Nearby Weather Stations

Elev 2192 ft 47.44 °N, 13.94 °E | Updated 20 minutes ago

Mostly Cloudy
Mostly Cloudy
45.1 °F
Feels Like 45 °F
N
0.4
Wind Variable Wind from SW
Gusts 1.4 mph

Today
High -- | Low -- °F
--% Chance of Precip.
Yesterday
High -- | Low -- °F
Precip. -- in
6:45 AM 4:48 PM
First Quarter, 53% visible
Pressure 30.36 in
Visibility 31.1 miles
Clouds Few 6000 ft
Mostly Cloudy 30000 ft
Windchill 45 °F
Dew Point 40 °F
Humidity 83%
Rainfall 0.00 in
Snow Depth Not available.
UV 1 out of 12
Pollen Not available.
Air Quality Not available.
Flu Activity Not available.
METAR LOXZ 310850Z 00000KT 50KM FEW060CU BKN300CI 06/03 Q1028 RMK BKN

More Conditions Fewer Conditions

Pressure 30.36 in
Visibility 31.1 miles
Clouds Few 6000 ft
Mostly Cloudy 30000 ft
Windchill 45 °F
Dew Point 40 °F
Humidity 83%
Rainfall 0.00 in
Snow Depth Not available.
UV 1 out of 12
Pollen Not available.
Air Quality Not available.
Flu Activity Not available.
METAR LOXZ 310850Z 00000KT 50KM FEW060CU BKN300CI 06/03 Q1028 RMK BKN

More Conditions Fewer Conditions

10-Day Weather Forecast

Almanac

Astronomy

Oct. 31, 2014 Rise Set
Actual Time
Civil Twilight
Nautical Twilight
Astronomical Twilight
Moon
Length of Visible Light
Length of Day
Tomorrow will be .
, % of the Moon is Illuminated

Today's Extremes

Country Highs Country Lows

Community

WunderPhotos

Upload Photos

1,766,576 photos uploaded!

WunderBlogs® & News

Nearby

Air Quality

  Air Quality AQ Index Pollutant
Not available.

Snow Depth

Station Depth Elevation

Earthquake Activity

City Distance Mag. Time & Date
Minimum magnitude displayed is 2.5.

Coastal Water Temperatures

Place Temperature

Nearby Weather Stations